Time;durP1;ratioP1;P1;durP2;ratioP2;P2;SDS_P1;SDS_P2;PMS_P1;PMS_P2;Temp;Humidity;BMP_temperature;BMP_pressure;BME280_temperature;BME280_humidity;BME280_pressure;Samples;Min_cycle;Max_cycle;Signal;HPM_P1;HPM_P2
2023/05/16 00:01:09;;;;;;;;;;;10.60;99.90;;;;;;5049624;28;19917;-57
2023/05/16 00:03:36;;;;;;;;;;;10.60;99.90;;;;;;5050037;28;19916;-55
2023/05/16 00:06:02;;;;;;;;;;;10.50;99.90;;;;;;5050052;28;19944;-57
2023/05/16 00:08:28;;;;;;;;;;;10.50;99.90;;;;;;5048749;28;19920;-57
2023/05/16 00:10:53;;;;;;;;;;;10.40;99.90;;;;;;5049174;28;19962;-55
2023/05/16 00:13:25;;;;;;;;;;;10.40;99.90;;;;;;5048932;28;19995;-57
2023/05/16 00:15:51;;;;;;;;;;;10.30;99.90;;;;;;5053131;28;20355;-57
2023/05/16 00:18:17;;;;;;;;;;;10.30;99.90;;;;;;5052107;28;20126;-57
2023/05/16 00:20:42;;;;;;;;;;;10.20;99.90;;;;;;5053026;28;19921;-57
2023/05/16 00:23:08;;;;;;;;;;;10.20;99.90;;;;;;5052455;28;19916;-57
2023/05/16 00:25:33;;;;;;;;;;;10.10;99.90;;;;;;5052449;28;19916;-56
2023/05/16 00:27:59;;;;;;;;;;;10.10;99.90;;;;;;5051632;28;20024;-57
2023/05/16 00:30:24;;;;;;;;;;;10.10;99.90;;;;;;5051879;28;19927;-57
2023/05/16 00:32:50;;;;;;;;;;;10.00;99.90;;;;;;5052907;28;19916;-56
2023/05/16 00:35:15;;;;;;;;;;;10.00;99.90;;;;;;5052381;28;20400;-57
2023/05/16 00:37:41;;;;;;;;;;;9.90;99.90;;;;;;5051026;28;20289;-55
2023/05/16 00:40:07;;;;;;;;;;;9.90;99.90;;;;;;5052199;28;20425;-56
2023/05/16 00:42:33;;;;;;;;;;;9.90;99.90;;;;;;5052604;28;20000;-56
2023/05/16 00:44:58;;;;;;;;;;;9.90;99.90;;;;;;5052372;28;19916;-57
2023/05/16 00:47:24;;;;;;;;;;;9.80;99.90;;;;;;5050454;28;20301;-55
2023/05/16 00:49:50;;;;;;;;;;;9.80;99.90;;;;;;5052185;28;19916;-55
2023/05/16 00:52:15;;;;;;;;;;;9.70;99.90;;;;;;5052037;28;19968;-56
2023/05/16 00:54:41;;;;;;;;;;;9.70;99.90;;;;;;5051577;28;19921;-56
2023/05/16 00:57:07;;;;;;;;;;;9.60;99.90;;;;;;5051887;28;19925;-57
2023/05/16 00:59:32;;;;;;;;;;;9.50;99.90;;;;;;5051925;28;19928;-54
2023/05/16 01:01:58;;;;;;;;;;;9.60;99.90;;;;;;5051828;28;20365;-55
2023/05/16 01:04:24;;;;;;;;;;;9.50;99.90;;;;;;5051791;28;19916;-53
2023/05/16 01:06:49;;;;;;;;;;;9.50;99.90;;;;;;5051556;28;19995;-56
2023/05/16 01:09:15;;;;;;;;;;;9.50;99.90;;;;;;5051007;28;19940;-55
2023/05/16 01:11:45;;;;;;;;;;;9.40;99.90;;;;;;5051927;28;20287;-54
2023/05/16 01:14:16;;;;;;;;;;;9.40;99.90;;;;;;5051717;28;19967;-55
2023/05/16 01:16:53;;;;;;;;;;;9.40;99.90;;;;;;5051108;28;20401;-54
2023/05/16 01:19:29;;;;;;;;;;;9.40;99.90;;;;;;5051324;28;20370;-55
2023/05/16 01:22:01;;;;;;;;;;;9.40;99.90;;;;;;5051666;28;19928;-57
2023/05/16 01:24:41;;;;;;;;;;;9.30;99.90;;;;;;5051897;28;19917;-55
2023/05/16 01:27:07;;;;;;;;;;;9.30;99.90;;;;;;5051229;28;20003;-54
2023/05/16 01:29:32;;;;;;;;;;;9.30;99.90;;;;;;5051163;28;20016;-55
2023/05/16 01:31:58;;;;;;;;;;;9.30;99.90;;;;;;5051579;28;19924;-56
2023/05/16 01:34:23;;;;;;;;;;;9.20;99.90;;;;;;5050600;28;19928;-55
2023/05/16 01:36:49;;;;;;;;;;;9.20;99.90;;;;;;5051324;28;19917;-56
2023/05/16 01:39:21;;;;;;;;;;;9.20;99.90;;;;;;5050571;28;20314;-57
2023/05/16 01:41:46;;;;;;;;;;;9.10;99.90;;;;;;5051589;28;20307;-53
2023/05/16 01:44:17;;;;;;;;;;;9.10;99.90;;;;;;5050840;28;19921;-54
2023/05/16 01:46:44;;;;;;;;;;;9.10;99.90;;;;;;5050592;28;20381;-57
2023/05/16 01:49:17;;;;;;;;;;;9.00;99.90;;;;;;5050527;28;19916;-53
2023/05/16 01:52:03;;;;;;;;;;;9.00;99.90;;;;;;5051293;28;19917;-56
2023/05/16 01:54:30;;;;;;;;;;;9.00;99.90;;;;;;5050369;28;19989;-57
2023/05/16 01:56:56;;;;;;;;;;;8.90;99.90;;;;;;5050781;28;19923;-56
2023/05/16 01:59:22;;;;;;;;;;;8.90;99.90;;;;;;5049749;28;19920;-56
2023/05/16 02:01:48;;;;;;;;;;;8.80;99.90;;;;;;5049812;28;19917;-55
2023/05/16 02:04:14;;;;;;;;;;;8.80;99.90;;;;;;5050434;28;19917;-56
2023/05/16 02:06:40;;;;;;;;;;;8.80;99.90;;;;;;5050995;28;20054;-55
2023/05/16 02:09:06;;;;;;;;;;;8.70;99.90;;;;;;5050075;28;19991;-56
2023/05/16 02:11:31;;;;;;;;;;;8.80;99.90;;;;;;5050840;28;20015;-55
2023/05/16 02:13:57;;;;;;;;;;;8.70;99.90;;;;;;5049499;28;19921;-55
2023/05/16 02:16:22;;;;;;;;;;;8.70;99.90;;;;;;5050669;28;20275;-57
2023/05/16 02:18:48;;;;;;;;;;;8.70;99.90;;;;;;5050186;28;19924;-57
2023/05/16 02:21:13;;;;;;;;;;;8.70;99.90;;;;;;5050893;28;20392;-57
2023/05/16 02:23:39;;;;;;;;;;;8.60;99.90;;;;;;5050022;28;19946;-57
2023/05/16 02:26:05;;;;;;;;;;;8.60;99.90;;;;;;5049082;28;19960;-55
2023/05/16 02:28:30;;;;;;;;;;;8.60;99.90;;;;;;5049447;28;19917;-55
2023/05/16 02:30:57;;;;;;;;;;;8.50;99.90;;;;;;5050925;28;19917;-57
2023/05/16 02:33:22;;;;;;;;;;;8.50;99.90;;;;;;5053338;28;19921;-54
2023/05/16 02:35:48;;;;;;;;;;;8.50;99.90;;;;;;5056844;28;20465;-55
2023/05/16 02:38:16;;;;;;;;;;;8.50;99.90;;;;;;5049180;28;20199;-57
2023/05/16 02:40:42;;;;;;;;;;;8.40;99.90;;;;;;5050616;28;19963;-57
2023/05/16 02:43:07;;;;;;;;;;;8.40;99.90;;;;;;5050227;28;19946;-57
2023/05/16 02:45:33;;;;;;;;;;;8.30;99.90;;;;;;5049502;28;19923;-55
2023/05/16 02:47:58;;;;;;;;;;;8.30;99.90;;;;;;5048634;28;19971;-57
2023/05/16 02:50:24;;;;;;;;;;;8.30;99.90;;;;;;5049850;28;20450;-56
2023/05/16 02:52:49;;;;;;;;;;;8.20;99.90;;;;;;5050137;28;19916;-56
2023/05/16 02:55:15;;;;;;;;;;;8.20;99.90;;;;;;5049715;28;19974;-56
2023/05/16 02:57:40;;;;;;;;;;;8.20;99.90;;;;;;5048651;28;20885;-56
2023/05/16 03:00:08;;;;;;;;;;;8.20;99.90;;;;;;5050513;28;19926;-55
2023/05/16 03:02:34;;;;;;;;;;;8.20;99.90;;;;;;5050047;28;20051;-56
2023/05/16 03:05:00;;;;;;;;;;;8.10;99.90;;;;;;5049487;28;20003;-56
2023/05/16 03:07:25;;;;;;;;;;;8.10;99.90;;;;;;5049531;28;20161;-54
2023/05/16 03:09:51;;;;;;;;;;;8.00;99.90;;;;;;5049501;28;20362;-56
2023/05/16 03:12:16;;;;;;;;;;;8.10;99.90;;;;;;5049334;28;19924;-55
2023/05/16 03:14:42;;;;;;;;;;;8.00;99.90;;;;;;5049404;28;19927;-57
2023/05/16 03:17:08;;;;;;;;;;;8.00;99.90;;;;;;5049454;28;19939;-57
2023/05/16 03:19:33;;;;;;;;;;;8.00;99.90;;;;;;5049096;28;19989;-54
2023/05/16 03:21:59;;;;;;;;;;;8.00;99.90;;;;;;5049956;28;19924;-55
2023/05/16 03:24:24;;;;;;;;;;;8.00;99.90;;;;;;5048149;28;19917;-56
2023/05/16 03:26:50;;;;;;;;;;;8.00;99.90;;;;;;5048928;28;19917;-55
2023/05/16 03:29:16;;;;;;;;;;;8.10;99.90;;;;;;5048768;28;20293;-54
2023/05/16 03:31:42;;;;;;;;;;;8.10;99.90;;;;;;5049464;28;19921;-56
2023/05/16 03:34:07;;;;;;;;;;;8.10;99.90;;;;;;5048078;28;19927;-54
2023/05/16 03:36:34;;;;;;;;;;;8.20;99.90;;;;;;5031358;28;20000;-56
2023/05/16 03:38:59;;;;;;;;;;;8.20;99.90;;;;;;5049020;28;19916;-54
2023/05/16 03:41:25;;;;;;;;;;;8.20;99.90;;;;;;5048717;28;20026;-55
2023/05/16 03:43:50;;;;;;;;;;;8.20;99.90;;;;;;5049452;28;19917;-53
2023/05/16 03:46:16;;;;;;;;;;;8.20;99.90;;;;;;5046165;28;20252;-57
2023/05/16 03:48:41;;;;;;;;;;;8.20;99.90;;;;;;5047266;28;19920;-56
2023/05/16 03:51:07;;;;;;;;;;;8.20;99.90;;;;;;5052394;28;19917;-56
2023/05/16 03:53:32;;;;;;;;;;;8.20;99.90;;;;;;5052484;28;19921;-55
2023/05/16 03:55:58;;;;;;;;;;;8.20;99.90;;;;;;5052806;28;19966;-56
2023/05/16 03:58:24;;;;;;;;;;;8.20;99.90;;;;;;5052677;28;19923;-57
2023/05/16 04:00:49;;;;;;;;;;;8.20;99.90;;;;;;5053440;28;19917;-57
2023/05/16 04:03:15;;;;;;;;;;;8.20;99.90;;;;;;5053180;28;19924;-57
2023/05/16 04:05:40;;;;;;;;;;;8.20;99.90;;;;;;5052932;28;20452;-53
2023/05/16 04:08:06;;;;;;;;;;;8.20;99.90;;;;;;5052743;28;19982;-57
2023/05/16 04:10:32;;;;;;;;;;;8.20;99.90;;;;;;5053089;28;19920;-56
2023/05/16 04:12:58;;;;;;;;;;;8.20;99.90;;;;;;5053118;28;20054;-54
2023/05/16 04:15:23;;;;;;;;;;;8.20;99.90;;;;;;5051924;28;20374;-54
2023/05/16 04:17:49;;;;;;;;;;;8.20;99.90;;;;;;5051608;28;20242;-56
2023/05/16 04:20:14;;;;;;;;;;;8.20;99.90;;;;;;5052987;28;19986;-56
2023/05/16 04:22:40;;;;;;;;;;;8.20;99.90;;;;;;5051334;28;19946;-56
2023/05/16 04:25:06;;;;;;;;;;;8.20;99.90;;;;;;5052176;28;19951;-55
2023/05/16 04:27:32;;;;;;;;;;;8.20;99.90;;;;;;5051809;28;19921;-56
2023/05/16 04:29:58;;;;;;;;;;;8.20;99.90;;;;;;5052947;28;20285;-54
2023/05/16 04:32:24;;;;;;;;;;;8.20;99.90;;;;;;5052445;28;20377;-56
2023/05/16 04:34:52;;;;;;;;;;;8.20;99.90;;;;;;5051271;28;19921;-56
2023/05/16 04:37:17;;;;;;;;;;;8.20;99.90;;;;;;5052295;28;19970;-57
2023/05/16 04:39:43;;;;;;;;;;;8.20;99.90;;;;;;5051274;28;19952;-56
2023/05/16 04:42:08;;;;;;;;;;;8.20;99.90;;;;;;5052289;28;20527;-57
2023/05/16 04:44:34;;;;;;;;;;;8.20;99.90;;;;;;5052025;28;19989;-56
2023/05/16 04:46:59;;;;;;;;;;;8.20;99.90;;;;;;5052267;28;20301;-57
2023/05/16 04:49:25;;;;;;;;;;;8.30;99.90;;;;;;5051613;28;19960;-57
2023/05/16 04:51:50;;;;;;;;;;;8.30;99.90;;;;;;5052629;28;19917;-54
2023/05/16 04:54:16;;;;;;;;;;;8.30;99.90;;;;;;5051224;28;19925;-54
2023/05/16 04:56:41;;;;;;;;;;;8.40;99.90;;;;;;5052108;28;19927;-57
2023/05/16 04:59:07;;;;;;;;;;;8.50;99.90;;;;;;5051350;28;19917;-56
2023/05/16 05:01:32;;;;;;;;;;;8.50;99.90;;;;;;5051890;28;19921;-57
2023/05/16 05:03:58;;;;;;;;;;;8.50;99.90;;;;;;5051553;28;20127;-56
2023/05/16 05:06:23;;;;;;;;;;;8.60;99.90;;;;;;5051706;28;20215;-53
2023/05/16 05:08:49;;;;;;;;;;;8.70;99.90;;;;;;5050674;28;19921;-53
2023/05/16 05:11:14;;;;;;;;;;;8.70;99.90;;;;;;5052549;28;20235;-57
2023/05/16 05:13:40;;;;;;;;;;;8.80;99.90;;;;;;5053943;28;19943;-56
2023/05/16 05:16:06;;;;;;;;;;;8.90;99.90;;;;;;5058327;28;19943;-57
2023/05/16 05:18:31;;;;;;;;;;;9.00;99.90;;;;;;5052713;28;19917;-56
2023/05/16 05:20:57;;;;;;;;;;;9.10;99.90;;;;;;5052041;28;20382;-54
2023/05/16 05:23:23;;;;;;;;;;;9.20;99.90;;;;;;5049619;28;20210;-57
2023/05/16 05:25:49;;;;;;;;;;;9.30;99.90;;;;;;5052110;28;19926;-57
2023/05/16 05:28:15;;;;;;;;;;;9.40;99.90;;;;;;5050622;28;19917;-56
2023/05/16 05:30:40;;;;;;;;;;;9.50;99.90;;;;;;5052139;28;20381;-57
2023/05/16 05:33:06;;;;;;;;;;;9.60;99.90;;;;;;5051284;28;20003;-56
2023/05/16 05:35:31;;;;;;;;;;;9.70;99.90;;;;;;5051751;28;19966;-57
2023/05/16 05:37:57;;;;;;;;;;;9.80;99.90;;;;;;5050366;28;20401;-56
2023/05/16 05:40:22;;;;;;;;;;;9.90;99.90;;;;;;5031421;28;19921;-57
2023/05/16 05:42:48;;;;;;;;;;;10.00;99.90;;;;;;5031518;28;20465;-56
2023/05/16 05:45:14;;;;;;;;;;;10.10;99.90;;;;;;5048395;28;19961;-57
2023/05/16 05:47:40;;;;;;;;;;;10.20;99.90;;;;;;5050472;28;20015;-55
2023/05/16 05:50:06;;;;;;;;;;;10.20;99.90;;;;;;5051043;28;20007;-57
2023/05/16 05:52:32;;;;;;;;;;;10.30;99.90;;;;;;5050184;28;19923;-57
2023/05/16 05:54:58;;;;;;;;;;;10.50;99.90;;;;;;5046854;28;19925;-57
2023/05/16 05:57:23;;;;;;;;;;;10.50;99.90;;;;;;5047983;28;20317;-55
2023/05/16 05:59:49;;;;;;;;;;;10.60;99.90;;;;;;5048963;28;19917;-57
2023/05/16 06:02:14;;;;;;;;;;;10.70;99.90;;;;;;5039136;28;19944;-58
2023/05/16 06:04:41;;;;;;;;;;;10.80;99.90;;;;;;5050587;28;19923;-56
2023/05/16 06:07:07;;;;;;;;;;;10.90;99.90;;;;;;5049712;28;20376;-55
2023/05/16 06:09:32;;;;;;;;;;;10.90;99.90;;;;;;5044982;28;19944;-56
2023/05/16 06:11:58;;;;;;;;;;;11.00;99.90;;;;;;5030264;28;19960;-57
2023/05/16 06:14:24;;;;;;;;;;;11.10;99.90;;;;;;5031554;28;19921;-56
2023/05/16 06:16:49;;;;;;;;;;;11.20;99.90;;;;;;5045162;28;19951;-57
2023/05/16 06:19:15;;;;;;;;;;;11.30;99.90;;;;;;5048313;28;20288;-56
2023/05/16 06:21:42;;;;;;;;;;;11.40;99.90;;;;;;5050278;28;19921;-57
2023/05/16 06:24:07;;;;;;;;;;;11.40;99.90;;;;;;5050175;28;20380;-57
2023/05/16 06:26:33;;;;;;;;;;;11.50;99.90;;;;;;5049518;28;19916;-55
2023/05/16 06:28:58;;;;;;;;;;;11.70;99.90;;;;;;5045198;28;19920;-57
2023/05/16 06:31:24;;;;;;;;;;;11.70;99.90;;;;;;5049092;28;20093;-60
2023/05/16 06:33:50;;;;;;;;;;;11.80;99.90;;;;;;5048654;28;19963;-53
2023/05/16 06:36:15;;;;;;;;;;;11.90;99.90;;;;;;5048471;28;19933;-56
2023/05/16 06:38:41;;;;;;;;;;;12.00;99.90;;;;;;5048067;28;20017;-57
2023/05/16 06:41:07;;;;;;;;;;;12.00;99.90;;;;;;5049753;28;20000;-57
2023/05/16 06:43:32;;;;;;;;;;;12.20;99.90;;;;;;5049600;28;19932;-58
2023/05/16 06:45:57;;;;;;;;;;;12.20;99.90;;;;;;5050033;28;19917;-58
2023/05/16 06:48:23;;;;;;;;;;;12.30;99.90;;;;;;5049237;28;20439;-58
2023/05/16 06:50:50;;;;;;;;;;;12.30;99.90;;;;;;5050288;28;19917;-57
2023/05/16 06:53:16;;;;;;;;;;;12.50;99.90;;;;;;5048788;28;19961;-57
2023/05/16 06:55:42;;;;;;;;;;;12.60;99.90;;;;;;5049076;28;20313;-57
2023/05/16 06:58:08;;;;;;;;;;;12.60;99.90;;;;;;5047986;28;19923;-56
2023/05/16 07:00:33;;;;;;;;;;;12.60;99.90;;;;;;5049725;28;19917;-56
2023/05/16 07:02:59;;;;;;;;;;;12.70;99.90;;;;;;5048062;28;20340;-57
2023/05/16 07:05:24;;;;;;;;;;;12.70;99.90;;;;;;5048374;28;19916;-58
2023/05/16 07:07:50;;;;;;;;;;;12.70;99.90;;;;;;5046775;28;19956;-57
2023/05/16 07:10:15;;;;;;;;;;;12.60;99.90;;;;;;5042343;28;19916;-56
2023/05/16 07:12:41;;;;;;;;;;;12.60;99.90;;;;;;5041863;28;19920;-57
2023/05/16 07:15:07;;;;;;;;;;;12.60;99.90;;;;;;5054804;28;19928;-57
2023/05/16 07:17:33;;;;;;;;;;;12.50;99.90;;;;;;5046643;28;19916;-57
2023/05/16 07:19:58;;;;;;;;;;;12.50;99.90;;;;;;5051677;28;19945;-58
2023/05/16 07:22:24;;;;;;;;;;;12.50;99.90;;;;;;5054784;28;19963;-57
2023/05/16 07:24:52;;;;;;;;;;;12.50;99.90;;;;;;5048596;28;19924;-57
2023/05/16 07:27:17;;;;;;;;;;;12.50;99.90;;;;;;5051846;28;20336;-57
2023/05/16 07:29:43;;;;;;;;;;;12.50;99.90;;;;;;5055536;28;19920;-57
2023/05/16 07:32:08;;;;;;;;;;;12.60;99.90;;;;;;5042241;28;19960;-58
2023/05/16 07:34:34;;;;;;;;;;;12.60;99.90;;;;;;5045795;28;19920;-57
2023/05/16 07:36:59;;;;;;;;;;;12.50;99.90;;;;;;5052700;28;19928;-56
2023/05/16 07:39:25;;;;;;;;;;;12.50;99.90;;;;;;5050086;28;19920;-58
2023/05/16 07:41:50;;;;;;;;;;;12.50;99.90;;;;;;5048549;28;19924;-57
2023/05/16 07:44:16;;;;;;;;;;;12.60;99.90;;;;;;5050778;28;19924;-58
2023/05/16 07:46:43;;;;;;;;;;;12.80;99.90;;;;;;5035021;28;20054;-55
2023/05/16 07:49:09;;;;;;;;;;;12.90;99.90;;;;;;5051585;28;19917;-57
2023/05/16 07:51:35;;;;;;;;;;;12.90;99.90;;;;;;5057704;28;19922;-56
2023/05/16 07:54:01;;;;;;;;;;;13.00;99.90;;;;;;5054610;28;19932;-57
2023/05/16 07:56:26;;;;;;;;;;;13.10;99.90;;;;;;5048903;28;19924;-55
2023/05/16 07:58:52;;;;;;;;;;;13.30;99.90;;;;;;5034534;28;19920;-57
2023/05/16 08:01:18;;;;;;;;;;;13.40;99.90;;;;;;5035203;28;19925;-58
2023/05/16 08:03:43;;;;;;;;;;;13.60;99.90;;;;;;5049642;28;19960;-58
2023/05/16 08:06:09;;;;;;;;;;;13.70;99.90;;;;;;5048827;28;19924;-59
2023/05/16 08:08:34;;;;;;;;;;;13.80;99.90;;;;;;5050762;28;19966;-59
2023/05/16 08:11:00;;;;;;;;;;;14.00;99.90;;;;;;5052441;28;19968;-58
2023/05/16 08:13:25;;;;;;;;;;;14.10;99.90;;;;;;5035452;28;19927;-59
2023/05/16 08:15:51;;;;;;;;;;;14.20;99.90;;;;;;5047949;28;19974;-59
2023/05/16 08:18:16;;;;;;;;;;;14.40;99.90;;;;;;5050984;28;19920;-59
2023/05/16 08:20:42;;;;;;;;;;;14.40;99.60;;;;;;5033609;28;19974;-57
2023/05/16 08:23:08;;;;;;;;;;;14.50;98.90;;;;;;5049278;28;19928;-58
2023/05/16 08:25:33;;;;;;;;;;;14.50;99.10;;;;;;5050978;28;20270;-61
2023/05/16 08:28:00;;;;;;;;;;;14.60;99.00;;;;;;5047531;28;19923;-59
2023/05/16 08:30:26;;;;;;;;;;;14.70;99.20;;;;;;5053202;28;20397;-57
2023/05/16 08:32:52;;;;;;;;;;;14.80;99.10;;;;;;5047753;28;20007;-57
2023/05/16 08:35:17;;;;;;;;;;;14.90;98.40;;;;;;5049323;28;19924;-57
2023/05/16 08:37:43;;;;;;;;;;;14.70;98.80;;;;;;5046445;28;19927;-59
2023/05/16 08:40:09;;;;;;;;;;;14.60;99.30;;;;;;5047887;28;19917;-59
2023/05/16 08:42:35;;;;;;;;;;;14.40;99.70;;;;;;5047859;28;19916;-58
2023/05/16 08:45:01;;;;;;;;;;;14.30;99.60;;;;;;5049179;28;20360;-56
2023/05/16 08:47:29;;;;;;;;;;;14.20;99.50;;;;;;5049655;28;20352;-58
2023/05/16 08:49:56;;;;;;;;;;;14.10;99.40;;;;;;5048827;28;19924;-59
2023/05/16 08:52:23;;;;;;;;;;;14.20;99.90;;;;;;5050829;28;19921;-59
2023/05/16 08:54:50;;;;;;;;;;;14.30;99.80;;;;;;5046810;28;19921;-57
2023/05/16 08:57:15;;;;;;;;;;;14.40;99.80;;;;;;5051236;28;20320;-57
2023/05/16 08:59:41;;;;;;;;;;;14.50;99.90;;;;;;5049518;28;19932;-59
2023/05/16 09:02:07;;;;;;;;;;;14.60;98.50;;;;;;5043603;28;19924;-59
2023/05/16 09:04:34;;;;;;;;;;;14.60;98.50;;;;;;5024089;28;19920;-59
2023/05/16 09:06:59;;;;;;;;;;;14.50;98.60;;;;;;5049599;28;20139;-57
2023/05/16 09:09:25;;;;;;;;;;;14.70;99.20;;;;;;5048420;28;19925;-59
2023/05/16 09:11:50;;;;;;;;;;;14.80;98.90;;;;;;5044810;28;19927;-59
2023/05/16 09:14:16;;;;;;;;;;;14.90;98.30;;;;;;5049024;28;20007;-57
2023/05/16 09:16:44;;;;;;;;;;;15.10;97.40;;;;;;5046635;28;19924;-57
2023/05/16 09:19:11;;;;;;;;;;;15.20;97.70;;;;;;5048785;28;20205;-59
2023/05/16 09:21:38;;;;;;;;;;;15.40;97.00;;;;;;5049846;28;19917;-58
2023/05/16 09:24:05;;;;;;;;;;;15.50;97.20;;;;;;5046094;28;20034;-56
2023/05/16 09:26:35;;;;;;;;;;;15.70;97.20;;;;;;5046070;28;19926;-57
2023/05/16 09:29:01;;;;;;;;;;;15.80;96.80;;;;;;5046985;28;19983;-57
2023/05/16 09:31:30;;;;;;;;;;;15.80;96.00;;;;;;5048073;28;19971;-55
2023/05/16 09:33:56;;;;;;;;;;;15.80;95.50;;;;;;5050517;28;20355;-57
2023/05/16 09:36:21;;;;;;;;;;;15.70;95.10;;;;;;5050708;28;19925;-54
2023/05/16 09:38:47;;;;;;;;;;;15.50;95.20;;;;;;5035054;28;19920;-55
2023/05/16 09:41:12;;;;;;;;;;;15.50;95.50;;;;;;5046259;28;20324;-56
2023/05/16 09:43:39;;;;;;;;;;;15.60;95.90;;;;;;5044475;28;19920;-55
2023/05/16 09:46:05;;;;;;;;;;;15.70;96.00;;;;;;5045486;28;19916;-57
2023/05/16 09:48:31;;;;;;;;;;;15.90;95.50;;;;;;5049924;28;20023;-55
2023/05/16 09:51:01;;;;;;;;;;;16.00;96.10;;;;;;5045248;28;19917;-56
2023/05/16 09:53:27;;;;;;;;;;;16.20;96.00;;;;;;5047600;28;19920;-56
2023/05/16 09:56:00;;;;;;;;;;;16.30;94.70;;;;;;5047671;28;19925;-57
2023/05/16 09:58:27;;;;;;;;;;;16.30;94.20;;;;;;5046392;28;19932;-56
2023/05/16 10:00:55;;;;;;;;;;;16.30;94.20;;;;;;5047310;28;20309;-56
2023/05/16 10:03:20;;;;;;;;;;;16.30;93.60;;;;;;5046954;28;19920;-57
2023/05/16 10:05:46;;;;;;;;;;;16.30;93.20;;;;;;5051778;28;20051;-57
2023/05/16 10:08:12;;;;;;;;;;;16.40;92.90;;;;;;5049309;28;19951;-56
2023/05/16 10:10:38;;;;;;;;;;;16.40;92.60;;;;;;5047260;28;20360;-57
2023/05/16 10:13:04;;;;;;;;;;;16.50;93.30;;;;;;5048524;28;20020;-57
2023/05/16 10:15:30;;;;;;;;;;;16.60;93.10;;;;;;5048410;28;20344;-57
2023/05/16 10:17:58;;;;;;;;;;;16.70;93.40;;;;;;5045151;28;19920;-56
2023/05/16 10:20:25;;;;;;;;;;;16.80;93.80;;;;;;5044032;28;19920;-57
2023/05/16 10:22:52;;;;;;;;;;;16.90;93.50;;;;;;5043894;28;19974;-58
2023/05/16 10:25:39;;;;;;;;;;;16.80;92.30;;;;;;5047165;28;20023;-57
2023/05/16 10:28:05;;;;;;;;;;;16.60;92.50;;;;;;5049730;28;20301;-56
2023/05/16 10:30:32;;;;;;;;;;;16.60;92.40;;;;;;5051280;28;20400;-57
2023/05/16 10:33:00;;;;;;;;;;;16.60;93.80;;;;;;5048363;28;20125;-56
2023/05/16 10:35:26;;;;;;;;;;;16.60;93.90;;;;;;5051482;28;19920;-58
2023/05/16 10:37:52;;;;;;;;;;;16.50;93.60;;;;;;5046826;28;19916;-55
2023/05/16 10:40:18;;;;;;;;;;;16.50;93.70;;;;;;5035066;28;19922;-58
2023/05/16 10:42:54;;;;;;;;;;;16.50;93.00;;;;;;5048427;28;19924;-57
2023/05/16 10:45:20;;;;;;;;;;;16.50;92.30;;;;;;5046287;28;19921;-58
2023/05/16 10:47:52;;;;;;;;;;;16.40;92.60;;;;;;5046803;28;20011;-58
2023/05/16 10:50:37;;;;;;;;;;;16.40;92.70;;;;;;5050456;28;19916;-56
2023/05/16 10:53:15;;;;;;;;;;;16.40;93.10;;;;;;5043969;28;20413;-57
2023/05/16 10:55:48;;;;;;;;;;;16.20;92.50;;;;;;5044840;28;20012;-57
2023/05/16 10:58:17;;;;;;;;;;;16.30;92.90;;;;;;5047477;28;20392;-56
2023/05/16 11:00:43;;;;;;;;;;;16.40;93.20;;;;;;5026450;28;19928;-56
2023/05/16 11:03:22;;;;;;;;;;;16.50;93.50;;;;;;5045914;28;19920;-52
2023/05/16 11:05:51;;;;;;;;;;;16.70;93.50;;;;;;5049444;28;19965;-57
2023/05/16 11:08:16;;;;;;;;;;;16.80;93.80;;;;;;5042496;28;19927;-57
2023/05/16 11:10:42;;;;;;;;;;;16.90;94.20;;;;;;5047178;28;19925;-57
2023/05/16 11:13:07;;;;;;;;;;;16.90;93.20;;;;;;5048320;28;20397;-57
2023/05/16 11:15:33;;;;;;;;;;;16.70;93.40;;;;;;5052473;28;20310;-57
2023/05/16 11:18:09;;;;;;;;;;;16.70;92.50;;;;;;5043849;28;19982;-58
2023/05/16 11:20:38;;;;;;;;;;;16.60;92.60;;;;;;5045670;28;20257;-58
2023/05/16 11:23:15;;;;;;;;;;;16.50;91.90;;;;;;5047827;28;20425;-56
2023/05/16 11:25:43;;;;;;;;;;;16.40;92.60;;;;;;5051549;28;19963;-57
2023/05/16 11:28:09;;;;;;;;;;;16.40;92.10;;;;;;5051897;28;20038;-58
2023/05/16 11:30:35;;;;;;;;;;;16.60;92.20;;;;;;5049374;28;19916;-56
2023/05/16 11:33:01;;;;;;;;;;;16.60;91.40;;;;;;5049338;28;20296;-57
2023/05/16 11:35:27;;;;;;;;;;;16.60;91.50;;;;;;5052159;28;19930;-55
2023/05/16 11:37:53;;;;;;;;;;;16.40;91.30;;;;;;5034258;28;19921;-56
2023/05/16 11:40:18;;;;;;;;;;;16.40;91.90;;;;;;5068035;28;20374;-58
2023/05/16 11:42:46;;;;;;;;;;;16.40;91.90;;;;;;5054497;28;19916;-57
2023/05/16 11:45:14;;;;;;;;;;;16.50;92.10;;;;;;5050777;28;20383;-57
2023/05/16 11:47:41;;;;;;;;;;;16.70;92.30;;;;;;5051149;28;19967;-56
2023/05/16 11:50:13;;;;;;;;;;;16.80;91.20;;;;;;5046503;28;19917;-57
2023/05/16 11:52:39;;;;;;;;;;;16.90;91.70;;;;;;5050169;28;19916;-55
2023/05/16 11:55:05;;;;;;;;;;;17.00;91.00;;;;;;5051800;28;19928;-56
2023/05/16 11:57:32;;;;;;;;;;;17.10;91.40;;;;;;5052809;28;20624;-56
2023/05/16 12:00:26;;;;;;;;;;;17.20;91.40;;;;;;5053660;28;20106;-55
2023/05/16 12:02:53;;;;;;;;;;;17.30;91.90;;;;;;5044239;28;20024;-57
2023/05/16 12:05:20;;;;;;;;;;;17.40;91.40;;;;;;5050329;28;20384;-55
2023/05/16 12:07:46;;;;;;;;;;;17.50;91.40;;;;;;5045449;28;20011;-55
2023/05/16 12:10:13;;;;;;;;;;;17.60;91.90;;;;;;5049863;28;20405;-54
2023/05/16 12:12:39;;;;;;;;;;;17.50;91.70;;;;;;5050480;28;19917;-57
2023/05/16 12:15:06;;;;;;;;;;;17.50;91.50;;;;;;5048762;28;20349;-57
2023/05/16 12:17:35;;;;;;;;;;;17.40;92.10;;;;;;5051431;28;20266;-57
2023/05/16 12:20:01;;;;;;;;;;;17.30;91.30;;;;;;5052439;28;19929;-57
2023/05/16 12:22:26;;;;;;;;;;;17.20;91.20;;;;;;5051683;28;20586;-55
2023/05/16 12:24:52;;;;;;;;;;;16.90;90.40;;;;;;5047156;28;19927;-55
2023/05/16 12:27:24;;;;;;;;;;;16.70;90.70;;;;;;5051731;28;19939;-55
2023/05/16 12:29:49;;;;;;;;;;;16.40;90.60;;;;;;5048429;28;19924;-57
2023/05/16 12:32:18;;;;;;;;;;;16.20;91.10;;;;;;5052239;28;20309;-55
2023/05/16 12:34:51;;;;;;;;;;;16.00;91.30;;;;;;5050538;28;19925;-56
2023/05/16 12:37:17;;;;;;;;;;;15.70;92.70;;;;;;5066487;28;20399;-56
2023/05/16 12:39:45;;;;;;;;;;;15.40;93.50;;;;;;5045546;28;19924;-57
2023/05/16 12:42:12;;;;;;;;;;;15.20;93.90;;;;;;5049322;28;19971;-56
2023/05/16 12:44:38;;;;;;;;;;;15.00;93.50;;;;;;5051019;28;20281;-56
2023/05/16 12:47:10;;;;;;;;;;;15.00;94.40;;;;;;5050296;28;19917;-57
2023/05/16 12:49:36;;;;;;;;;;;15.10;94.30;;;;;;5052808;28;20393;-57
2023/05/16 12:52:04;;;;;;;;;;;15.30;94.60;;;;;;5031723;28;19917;-57
2023/05/16 12:54:30;;;;;;;;;;;15.60;94.00;;;;;;5051952;28;20416;-57
2023/05/16 12:56:55;;;;;;;;;;;15.80;93.40;;;;;;5050697;28;19916;-57
2023/05/16 12:59:21;;;;;;;;;;;16.00;93.80;;;;;;5047569;28;19924;-55
2023/05/16 13:01:46;;;;;;;;;;;16.20;93.60;;;;;;5047147;28;19951;-58
2023/05/16 13:04:17;;;;;;;;;;;16.40;93.20;;;;;;5051315;28;19925;-58
2023/05/16 13:06:42;;;;;;;;;;;16.60;92.80;;;;;;5050180;28;20296;-57
2023/05/16 13:09:09;;;;;;;;;;;16.80;93.30;;;;;;5050388;28;20444;-57
2023/05/16 13:11:35;;;;;;;;;;;16.90;93.40;;;;;;5050801;28;19923;-56
2023/05/16 13:14:00;;;;;;;;;;;17.10;92.70;;;;;;5046605;28;19917;-57
2023/05/16 13:16:26;;;;;;;;;;;17.00;92.30;;;;;;5048758;28;20232;-57
2023/05/16 13:18:52;;;;;;;;;;;16.90;92.20;;;;;;5049980;28;20698;-57
2023/05/16 13:21:17;;;;;;;;;;;16.70;91.70;;;;;;5049283;28;19923;-56
2023/05/16 13:23:43;;;;;;;;;;;16.50;92.20;;;;;;5028298;28;19920;-56
2023/05/16 13:26:08;;;;;;;;;;;16.40;91.70;;;;;;5048397;28;19916;-56
2023/05/16 13:28:35;;;;;;;;;;;16.30;91.90;;;;;;5048959;28;20318;-57
2023/05/16 13:31:00;;;;;;;;;;;16.30;92.70;;;;;;5052637;28;19931;-57
2023/05/16 13:33:26;;;;;;;;;;;16.30;92.60;;;;;;5049064;28;20391;-56
2023/05/16 13:35:54;;;;;;;;;;;16.20;92.70;;;;;;5046372;28;19921;-61
2023/05/16 13:38:19;;;;;;;;;;;16.10;93.10;;;;;;5039402;28;19920;-57
2023/05/16 13:40:45;;;;;;;;;;;16.00;93.10;;;;;;5040206;28;20416;-55
2023/05/16 13:43:13;;;;;;;;;;;15.90;93.10;;;;;;5038721;28;19921;-57
2023/05/16 13:45:38;;;;;;;;;;;15.80;93.70;;;;;;5049448;28;19963;-57
2023/05/16 13:48:04;;;;;;;;;;;15.80;93.50;;;;;;5048686;28;19917;-56
2023/05/16 13:50:31;;;;;;;;;;;15.80;93.30;;;;;;5046256;28;19920;-56
2023/05/16 13:52:56;;;;;;;;;;;15.80;93.30;;;;;;5047279;28;20830;-57
2023/05/16 13:55:22;;;;;;;;;;;15.70;92.90;;;;;;5027187;28;19935;-58
2023/05/16 13:57:48;;;;;;;;;;;15.70;92.60;;;;;;5042083;28;20744;-58
2023/05/16 14:00:14;;;;;;;;;;;15.70;92.20;;;;;;5055017;28;19931;-55
2023/05/16 14:02:40;;;;;;;;;;;15.70;92.50;;;;;;5051153;28;20325;-58
2023/05/16 14:05:05;;;;;;;;;;;15.70;92.70;;;;;;5047733;28;20296;-57
2023/05/16 14:07:31;;;;;;;;;;;15.80;92.90;;;;;;5047182;28;20334;-56
2023/05/16 14:09:56;;;;;;;;;;;15.80;92.40;;;;;;5049982;28;20342;-56
2023/05/16 14:12:22;;;;;;;;;;;15.80;92.60;;;;;;5051050;28;19924;-57
2023/05/16 14:14:48;;;;;;;;;;;15.80;92.00;;;;;;5046330;28;19940;-56
2023/05/16 14:17:13;;;;;;;;;;;15.70;91.90;;;;;;5048362;28;19925;-55